Terminal Aerodrome Forecast
Issued by NWS Cleveland, OH

Home | Current Version | Previous Version | Graphics & Text | Print | Product List | Glossary Off
Versions: 1 2 3 4 5 6 7 8 9 10 11 12 13 14 15 16 17 18 19 20 21 22 23

000
FTUS41 KCLE 220200 AAA
TAFCAK
TAF AMD
KCAK 220203Z 2202/2224 32009KT P6SM BKN015 OVC040
      TEMPO 2202/2205 3SM -SHRA SCT015 OVC025
     FM220500 32009KT P6SM VCSH SCT010 OVC022
     FM221600 32010KT P6SM BKN030
     FM222300 31007KT P6SM SCT040=

USA.gov is the U.S. government's official web portal to all federal, state and local government web resources and services.